createdAt,value
2022-09-01T00:01:55.113Z,14.38
2022-09-01T00:04:27.167Z,14.44
2022-09-01T00:06:56.387Z,14.48
2022-09-01T00:09:24.803Z,14.60
2022-09-01T00:11:55.772Z,14.62
2022-09-01T00:14:30.856Z,14.57
2022-09-01T00:17:00.209Z,14.47
2022-09-01T00:19:30.928Z,14.28
2022-09-01T00:21:58.984Z,14.40
2022-09-01T00:24:27.828Z,14.56
2022-09-01T00:26:57.171Z,14.53
2022-09-01T00:29:26.616Z,14.47
2022-09-01T00:31:55.170Z,14.45
2022-09-01T00:34:23.156Z,14.73
2022-09-01T00:36:52.323Z,14.71
2022-09-01T00:39:20.384Z,14.62
2022-09-01T00:41:50.545Z,14.81
2022-09-01T00:44:23.306Z,14.51
2022-09-01T00:46:55.624Z,14.55
2022-09-01T00:49:29.763Z,14.59
2022-09-01T00:52:04.990Z,14.34
2022-09-01T00:54:36.991Z,14.35
2022-09-01T00:57:06.479Z,14.39
2022-09-01T00:59:34.566Z,14.61
2022-09-01T01:02:02.435Z,14.67
2022-09-01T01:04:31.403Z,14.66
2022-09-01T01:07:03.120Z,14.53
2022-09-01T01:09:36.962Z,14.46
2022-09-01T01:12:06.978Z,14.50
2022-09-01T01:14:39.626Z,14.56
2022-09-01T01:17:07.905Z,14.40
2022-09-01T01:20:01.640Z,14.29
2022-09-01T01:22:57.687Z,14.21
2022-09-01T01:25:27.342Z,14.24
2022-09-01T01:28:05.772Z,14.39
2022-09-01T01:30:35.441Z,14.24
2022-09-01T01:33:03.614Z,14.10
2022-09-01T01:35:33.730Z,13.98
2022-09-01T01:38:03.107Z,14.00
2022-09-01T01:40:32.314Z,13.97
2022-09-01T01:43:01.255Z,13.83
2022-09-01T01:45:29.557Z,13.77
2022-09-01T01:47:57.991Z,13.63
2022-09-01T01:50:29.900Z,13.75
2022-09-01T01:53:02.828Z,13.80
2022-09-01T01:55:32.143Z,13.85
2022-09-01T01:58:01.516Z,14.03
2022-09-01T02:00:35.087Z,13.85
2022-09-01T02:03:03.255Z,14.15
2022-09-01T02:05:33.985Z,14.22
2022-09-01T02:08:04.705Z,14.00
2022-09-01T02:10:37.141Z,13.96
2022-09-01T02:13:07.265Z,13.99
2022-09-01T02:15:44.344Z,13.96
2022-09-01T02:18:14.227Z,13.89
2022-09-01T02:20:42.752Z,14.01
2022-09-01T02:23:12.389Z,13.90
2022-09-01T02:26:05.046Z,14.15
2022-09-01T02:28:36.841Z,14.05
2022-09-01T02:31:08.979Z,14.07
2022-09-01T02:33:38.116Z,14.00
2022-09-01T02:36:10.195Z,14.09
2022-09-01T02:38:41.832Z,13.98
2022-09-01T02:41:23.771Z,13.83
2022-09-01T02:43:52.131Z,13.78
2022-09-01T02:46:24.358Z,13.75
2022-09-01T02:48:52.742Z,13.92
2022-09-01T02:51:22.638Z,13.55
2022-09-01T02:53:53.019Z,13.32
2022-09-01T02:56:25.219Z,13.26
2022-09-01T02:58:54.035Z,13.23
2022-09-01T03:01:25.505Z,13.44
2022-09-01T03:03:55.566Z,13.45
2022-09-01T03:06:24.158Z,13.71
2022-09-01T03:08:53.311Z,13.68
2022-09-01T03:11:24.290Z,13.62
2022-09-01T03:13:52.783Z,13.66
2022-09-01T03:16:22.411Z,13.58
2022-09-01T03:18:50.812Z,13.67
2022-09-01T03:21:18.862Z,13.84
2022-09-01T03:23:47.791Z,13.80
2022-09-01T03:26:18.827Z,13.62
2022-09-01T03:28:48.503Z,13.45
2022-09-01T03:31:18.293Z,13.46
2022-09-01T03:33:46.140Z,13.30
2022-09-01T03:36:19.256Z,13.58
2022-09-01T03:38:49.191Z,13.40
2022-09-01T03:41:18.862Z,13.45
2022-09-01T03:43:48.589Z,13.47
2022-09-01T03:46:20.373Z,13.50
2022-09-01T03:48:50.271Z,13.58
2022-09-01T03:51:19.057Z,13.57
2022-09-01T03:53:47.355Z,13.36
2022-09-01T03:56:15.301Z,13.40
2022-09-01T03:58:47.276Z,13.52
2022-09-01T04:01:17.170Z,13.57
2022-09-01T04:03:48.976Z,13.40
2022-09-01T04:06:19.450Z,13.55
2022-09-01T04:08:47.451Z,13.64
2022-09-01T04:11:19.047Z,13.31
2022-09-01T04:13:48.228Z,13.36
2022-09-01T04:16:41.133Z,13.40
2022-09-01T04:19:16.148Z,13.41
2022-09-01T04:21:44.961Z,13.46
2022-09-01T04:24:15.105Z,13.15
2022-09-01T04:26:46.054Z,13.27
2022-09-01T04:29:14.363Z,13.36
2022-09-01T04:31:43.544Z,13.37
2022-09-01T04:34:13.999Z,13.64
2022-09-01T04:36:44.067Z,13.45
2022-09-01T04:39:13.252Z,13.91
2022-09-01T04:41:45.980Z,13.60
2022-09-01T04:44:17.889Z,13.79
2022-09-01T04:46:50.720Z,13.75
2022-09-01T04:49:22.309Z,13.53
2022-09-01T04:51:53.925Z,13.84
2022-09-01T04:54:23.561Z,13.79
2022-09-01T04:56:52.740Z,13.78
2022-09-01T04:59:23.317Z,13.74
2022-09-01T05:01:55.612Z,13.70
2022-09-01T05:04:27.486Z,14.02
2022-09-01T05:07:00.937Z,14.24
2022-09-01T05:09:30.233Z,14.20
2022-09-01T05:12:10.968Z,14.32
2022-09-01T05:14:45.280Z,14.40
2022-09-01T05:17:14.844Z,14.45
2022-09-01T05:19:45.062Z,14.64
2022-09-01T05:22:13.238Z,14.83
2022-09-01T05:24:42.261Z,14.58
2022-09-01T05:27:12.557Z,15.07
2022-09-01T05:29:41.641Z,14.95
2022-09-01T05:32:12.598Z,15.37
2022-09-01T05:34:43.835Z,15.39
2022-09-01T05:37:13.079Z,15.90
2022-09-01T05:39:41.109Z,15.67
2022-09-01T05:42:09.342Z,15.63
2022-09-01T05:44:38.604Z,15.84
2022-09-01T05:47:12.153Z,15.70
2022-09-01T05:49:50.411Z,15.46
2022-09-01T05:52:22.036Z,15.54
2022-09-01T05:54:50.099Z,15.91
2022-09-01T05:57:33.714Z,16.23
2022-09-01T06:00:10.702Z,16.17
2022-09-01T06:02:38.909Z,16.46
2022-09-01T06:05:09.420Z,16.50
2022-09-01T06:07:38.072Z,16.42
2022-09-01T06:10:06.543Z,16.55
2022-09-01T06:12:34.415Z,16.48
2022-09-01T06:15:02.190Z,16.48
2022-09-01T06:17:30.890Z,16.63
2022-09-01T06:20:02.056Z,16.93
2022-09-01T06:22:31.207Z,16.97
2022-09-01T06:25:02.293Z,17.16
2022-09-01T06:27:30.875Z,17.34
2022-09-01T06:29:58.833Z,17.44
2022-09-01T06:32:27.121Z,17.72
2022-09-01T06:34:58.081Z,17.91
2022-09-01T06:37:26.813Z,17.89
2022-09-01T06:39:57.572Z,18.08
2022-09-01T06:42:26.129Z,18.28
2022-09-01T06:44:53.899Z,18.50
2022-09-01T06:47:21.690Z,18.50
2022-09-01T06:49:51.830Z,18.70
2022-09-01T06:52:23.665Z,19.01
2022-09-01T06:54:53.306Z,19.26
2022-09-01T07:00:18.761Z,19.19
2022-09-01T07:02:47.763Z,19.11
2022-09-01T07:08:09.277Z,19.64
2022-09-01T07:13:36.073Z,19.72
2022-09-01T07:18:58.717Z,19.75
2022-09-01T07:22:06.812Z,20.06
2022-09-01T07:24:18.139Z,20.11
2022-09-01T07:26:53.470Z,20.56
2022-09-01T07:29:23.570Z,20.18
2022-09-01T07:32:43.475Z,20.75
2022-09-01T07:34:41.445Z,21.02
2022-09-01T07:38:48.079Z,20.60
2022-09-01T07:45:33.344Z,21.22
2022-09-01T07:48:03.408Z,21.34
2022-09-01T07:53:22.515Z,21.20
2022-09-01T07:55:52.228Z,21.49
2022-09-01T07:58:22.056Z,21.29
2022-09-01T08:00:53.348Z,21.50
2022-09-01T08:03:24.059Z,21.78
2022-09-01T08:05:57.607Z,21.66
2022-09-01T08:08:28.991Z,22.49
2022-09-01T08:11:04.256Z,22.83
2022-09-01T08:13:38.942Z,22.34
2022-09-01T08:16:19.290Z,22.33
2022-09-01T08:18:49.537Z,22.29
2022-09-01T08:21:19.687Z,23.20
2022-09-01T08:23:47.960Z,23.30
2022-09-01T08:26:18.323Z,23.06
2022-09-01T08:28:54.313Z,23.32
2022-09-01T08:31:30.781Z,23.12
2022-09-01T08:34:00.223Z,23.66
2022-09-01T08:36:28.113Z,23.83
2022-09-01T08:38:55.955Z,23.55
2022-09-01T08:41:38.136Z,22.36
2022-09-01T08:44:14.829Z,22.30
2022-09-01T08:46:45.323Z,22.24
2022-09-01T08:49:25.108Z,22.27
2022-09-01T08:52:00.978Z,22.13
2022-09-01T08:54:36.721Z,21.87
2022-09-01T08:57:10.986Z,21.57
2022-09-01T08:59:39.179Z,21.55
2022-09-01T09:02:23.958Z,21.27
2022-09-01T09:05:01.612Z,21.40
2022-09-01T09:07:45.081Z,21.54
2022-09-01T09:10:18.282Z,21.72
2022-09-01T09:13:01.537Z,21.34
2022-09-01T09:15:40.145Z,21.60
2022-09-01T09:18:20.582Z,21.43
2022-09-01T09:21:15.754Z,22.62
2022-09-01T09:23:48.857Z,23.66
2022-09-01T09:26:22.338Z,23.28
2022-09-01T09:28:50.814Z,22.36
2022-09-01T09:31:33.900Z,22.42
2022-09-01T09:34:05.077Z,22.61
2022-09-01T09:36:36.647Z,22.32
2022-09-01T09:39:11.333Z,21.98
2022-09-01T09:41:40.884Z,21.56
2022-09-01T09:44:22.789Z,23.23
2022-09-01T09:46:51.703Z,22.49
2022-09-01T09:49:34.627Z,22.62
2022-09-01T09:52:18.181Z,21.96
2022-09-01T09:55:05.144Z,22.16
2022-09-01T09:57:39.184Z,21.93
2022-09-01T10:00:16.503Z,21.81
2022-09-01T10:02:46.517Z,21.87
2022-09-01T10:05:30.140Z,22.88
2022-09-01T10:07:59.461Z,24.54
2022-09-01T10:10:32.143Z,25.79
2022-09-01T10:13:02.278Z,25.17
2022-09-01T10:15:34.473Z,24.52
2022-09-01T10:18:30.225Z,24.37
2022-09-01T10:21:02.237Z,25.02
2022-09-01T10:23:34.925Z,26.10
2022-09-01T10:26:09.568Z,26.16
2022-09-01T10:28:48.882Z,25.06
2022-09-01T10:31:19.013Z,25.79
2022-09-01T10:33:47.394Z,27.40
2022-09-01T10:36:17.743Z,27.04
2022-09-01T10:38:50.356Z,27.25
2022-09-01T10:42:00.065Z,26.19
2022-09-01T10:44:33.839Z,27.55
2022-09-01T10:47:06.159Z,26.80
2022-09-01T10:50:01.540Z,26.76
2022-09-01T10:52:57.385Z,26.29
2022-09-01T10:55:32.337Z,27.81
2022-09-01T11:01:11.175Z,26.12
2022-09-01T11:04:02.563Z,25.17
2022-09-01T11:07:11.561Z,24.58
2022-09-01T11:09:38.849Z,23.66
2022-09-01T11:12:39.612Z,24.59
2022-09-01T11:15:35.782Z,24.08
2022-09-01T11:18:08.757Z,24.18
2022-09-01T11:20:39.651Z,24.10
2022-09-01T11:23:12.712Z,25.03
2022-09-01T11:25:45.819Z,26.98
2022-09-01T11:28:39.984Z,26.24
2022-09-01T11:31:22.112Z,25.49
2022-09-01T11:34:14.878Z,26.61
2022-09-01T11:36:55.715Z,26.77
2022-09-01T11:39:35.918Z,27.42
2022-09-01T11:42:13.231Z,28.51
2022-09-01T11:44:47.320Z,28.30
2022-09-01T11:47:19.734Z,28.01
2022-09-01T11:49:51.682Z,27.38
2022-09-01T11:52:21.572Z,27.25
2022-09-01T11:54:50.834Z,27.02
2022-09-01T11:57:24.168Z,28.11
2022-09-01T11:59:52.707Z,28.13
2022-09-01T12:02:23.136Z,28.18
2022-09-01T12:04:51.744Z,28.47
2022-09-01T12:07:31.311Z,28.54
2022-09-01T12:09:59.207Z,29.06
2022-09-01T12:12:33.512Z,28.38
2022-09-01T12:15:06.632Z,29.39
2022-09-01T12:17:34.965Z,28.32
2022-09-01T12:20:23.359Z,27.70
2022-09-01T12:22:54.534Z,26.53
2022-09-01T12:25:26.052Z,27.26
2022-09-01T12:27:55.654Z,28.13
2022-09-01T12:30:27.429Z,27.19
2022-09-01T12:33:22.895Z,27.97
2022-09-01T12:35:43.906Z,28.14
2022-09-01T12:38:23.867Z,26.79
2022-09-01T12:40:54.278Z,26.67
2022-09-01T12:43:31.765Z,27.43
2022-09-01T12:46:02.858Z,28.38
2022-09-01T12:48:34.254Z,28.19
2022-09-01T12:51:03.912Z,28.20
2022-09-01T12:53:36.702Z,26.73
2022-09-01T12:56:20.000Z,28.13
2022-09-01T12:59:03.076Z,29.13
2022-09-01T13:01:33.831Z,28.43
2022-09-01T13:04:11.150Z,28.22
2022-09-01T13:06:39.055Z,26.97
2022-09-01T13:09:06.835Z,27.93
2022-09-01T13:14:25.621Z,28.27
2022-09-01T13:16:53.594Z,27.75
2022-09-01T13:19:27.813Z,28.53
2022-09-01T13:21:58.228Z,28.66
2022-09-01T13:24:30.211Z,28.78
2022-09-01T13:29:48.692Z,27.81
2022-09-01T13:32:19.256Z,28.27
2022-09-01T13:34:50.346Z,28.47
2022-09-01T13:37:18.650Z,25.91
2022-09-01T13:39:47.098Z,25.92
2022-09-01T13:42:16.275Z,27.06
2022-09-01T13:44:44.486Z,28.36
2022-09-01T13:47:30.038Z,28.58
2022-09-01T13:50:08.216Z,28.36
2022-09-01T13:52:38.311Z,28.56
2022-09-01T13:55:08.429Z,27.91
2022-09-01T13:57:36.939Z,27.88
2022-09-01T14:00:08.192Z,28.08
2022-09-01T14:02:37.497Z,27.88
2022-09-01T14:05:05.897Z,27.82
2022-09-01T14:07:33.747Z,28.39
2022-09-01T14:10:01.566Z,29.12
2022-09-01T14:12:30.232Z,28.04
2022-09-01T14:15:17.249Z,27.72
2022-09-01T14:17:49.569Z,28.81
2022-09-01T14:20:19.900Z,29.24
2022-09-01T14:22:48.436Z,28.02
2022-09-01T14:25:17.273Z,28.38
2022-09-01T14:27:45.885Z,28.63
2022-09-01T14:30:22.338Z,29.09
2022-09-01T14:32:52.301Z,28.52
2022-09-01T14:35:24.786Z,28.28
2022-09-01T14:37:53.164Z,28.07
2022-09-01T14:40:24.702Z,28.43
2022-09-01T14:42:53.956Z,28.53
2022-09-01T14:45:24.168Z,27.55
2022-09-01T14:47:55.727Z,27.76
2022-09-01T14:50:26.572Z,28.46
2022-09-01T14:52:56.376Z,28.73
2022-09-01T14:55:25.852Z,27.74
2022-09-01T14:57:54.986Z,29.21
2022-09-01T15:00:25.162Z,28.61
2022-09-01T15:02:56.163Z,28.63
2022-09-01T15:05:24.975Z,28.56
2022-09-01T15:07:53.171Z,29.44
2022-09-01T15:10:25.107Z,28.83
2022-09-01T15:12:54.637Z,27.98
2022-09-01T15:15:22.696Z,28.72
2022-09-01T15:17:50.814Z,28.38
2022-09-01T15:20:37.657Z,28.59
2022-09-01T15:23:05.840Z,27.92
2022-09-01T15:25:33.725Z,27.69
2022-09-01T15:28:01.741Z,28.37
2022-09-01T15:30:29.606Z,28.07
2022-09-01T15:32:57.538Z,28.44
2022-09-01T15:35:29.796Z,28.15
2022-09-01T15:37:58.119Z,28.73
2022-09-01T15:40:27.509Z,28.86
2022-09-01T15:42:55.843Z,27.84
2022-09-01T15:45:25.318Z,28.41
2022-09-01T15:47:53.142Z,27.67
2022-09-01T15:50:23.054Z,27.38
2022-09-01T15:52:58.672Z,27.18
2022-09-01T15:55:28.796Z,27.38
2022-09-01T15:57:56.675Z,27.45
2022-09-01T16:00:26.707Z,27.79
2022-09-01T16:02:56.468Z,27.98
2022-09-01T16:05:25.118Z,27.95
2022-09-01T16:10:32.390Z,27.02
2022-09-01T16:13:03.679Z,26.25
2022-09-01T16:15:31.978Z,27.09
2022-09-01T16:18:24.190Z,26.55
2022-09-01T16:21:00.351Z,26.30
2022-09-01T16:23:40.729Z,26.34
2022-09-01T16:26:11.798Z,26.75
2022-09-01T16:28:40.443Z,25.80
2022-09-01T16:31:14.697Z,25.81
2022-09-01T16:33:47.986Z,26.22
2022-09-01T16:36:29.597Z,25.69
2022-09-01T16:39:08.507Z,25.84
2022-09-01T16:41:48.249Z,24.92
2022-09-01T16:44:26.257Z,23.89
2022-09-01T16:47:02.790Z,23.52
2022-09-01T16:49:38.400Z,22.99
2022-09-01T16:52:15.244Z,22.88
2022-09-01T16:54:59.980Z,23.10
2022-09-01T16:57:41.282Z,23.89
2022-09-01T17:00:13.101Z,23.52
2022-09-01T17:02:49.628Z,24.04
2022-09-01T17:05:24.000Z,24.08
2022-09-01T17:07:56.565Z,23.55
2022-09-01T17:10:34.481Z,23.79
2022-09-01T17:13:16.497Z,23.85
2022-09-01T17:15:49.078Z,23.52
2022-09-01T17:18:22.106Z,23.57
2022-09-01T17:20:58.267Z,22.97
2022-09-01T17:23:29.198Z,23.60
2022-09-01T17:26:03.104Z,23.45
2022-09-01T17:28:37.520Z,22.63
2022-09-01T17:31:14.533Z,22.40
2022-09-01T17:34:01.829Z,21.65
2022-09-01T17:36:44.659Z,21.22
2022-09-01T17:39:24.273Z,20.79
2022-09-01T17:41:57.557Z,20.98
2022-09-01T17:44:37.280Z,20.71
2022-09-01T17:47:12.715Z,20.68
2022-09-01T17:49:48.729Z,20.27
2022-09-01T17:52:24.813Z,20.51
2022-09-01T17:54:59.829Z,20.08
2022-09-01T17:57:33.216Z,20.06
2022-09-01T18:00:09.859Z,20.26
2022-09-01T18:03:06.146Z,19.86
2022-09-01T18:05:40.359Z,20.13
2022-09-01T18:08:15.686Z,19.81
2022-09-01T18:10:48.636Z,19.94
2022-09-01T18:13:36.368Z,19.64
2022-09-01T18:16:17.572Z,19.67
2022-09-01T18:18:48.540Z,19.77
2022-09-01T18:21:20.247Z,19.60
2022-09-01T18:23:52.692Z,19.38
2022-09-01T18:26:27.258Z,19.49
2022-09-01T18:28:55.429Z,19.03
2022-09-01T18:31:42.226Z,19.24
2022-09-01T18:34:17.879Z,19.10
2022-09-01T18:36:55.127Z,19.26
2022-09-01T18:39:29.643Z,19.04
2022-09-01T18:42:07.300Z,19.13
2022-09-01T18:44:45.045Z,18.92
2022-09-01T18:47:15.712Z,18.84
2022-09-01T18:49:56.188Z,18.92
2022-09-01T18:52:42.439Z,18.99
2022-09-01T18:55:19.479Z,18.58
2022-09-01T18:57:51.315Z,18.53
2022-09-01T19:00:20.614Z,18.42
2022-09-01T19:03:12.353Z,18.33
2022-09-01T19:06:02.994Z,18.40
2022-09-01T19:08:47.129Z,18.06
2022-09-01T19:11:22.945Z,17.97
2022-09-01T19:14:00.285Z,18.04
2022-09-01T19:16:42.882Z,17.95
2022-09-01T19:19:24.219Z,17.74
2022-09-01T19:21:55.778Z,17.64
2022-09-01T19:24:29.139Z,17.53
2022-09-01T19:27:01.399Z,17.94
2022-09-01T19:29:34.374Z,17.61
2022-09-01T19:32:06.969Z,17.43
2022-09-01T19:34:40.469Z,18.47
2022-09-01T19:37:16.317Z,18.54
2022-09-01T19:39:49.812Z,18.46
2022-09-01T19:42:27.435Z,17.86
2022-09-01T19:45:06.977Z,17.91
2022-09-01T19:47:43.377Z,17.92
2022-09-01T19:50:17.780Z,18.12
2022-09-01T19:52:55.559Z,18.21
2022-09-01T19:55:31.694Z,17.99
2022-09-01T19:58:04.471Z,17.65
2022-09-01T20:00:51.000Z,17.40
2022-09-01T20:03:23.287Z,17.43
2022-09-01T20:05:58.089Z,17.37
2022-09-01T20:08:31.080Z,17.64
2022-09-01T20:11:03.321Z,17.55
2022-09-01T20:14:12.067Z,17.33
2022-09-01T20:16:44.155Z,17.41
2022-09-01T20:19:16.984Z,17.39
2022-09-01T20:21:48.650Z,17.38
2022-09-01T20:24:25.414Z,17.14
2022-09-01T20:27:00.274Z,17.21
2022-09-01T20:29:36.015Z,17.43
2022-09-01T20:32:05.101Z,17.29
2022-09-01T20:34:43.261Z,16.92
2022-09-01T20:37:18.465Z,16.74
2022-09-01T20:40:01.671Z,16.68
2022-09-01T20:42:41.610Z,16.85
2022-09-01T20:45:14.270Z,17.18
2022-09-01T20:47:45.959Z,17.19
2022-09-01T20:50:15.017Z,17.21
2022-09-01T20:52:57.270Z,16.79
2022-09-01T20:55:30.224Z,16.73
2022-09-01T20:58:04.230Z,16.95
2022-09-01T21:00:38.472Z,16.75
2022-09-01T21:03:14.716Z,16.75
2022-09-01T21:05:49.921Z,16.78
2022-09-01T21:08:34.305Z,16.87
2022-09-01T21:11:13.555Z,16.60
2022-09-01T21:13:54.231Z,16.79
2022-09-01T21:16:32.865Z,16.68
2022-09-01T21:19:07.618Z,16.64
2022-09-01T21:21:42.244Z,16.60
2022-09-01T21:24:11.505Z,16.47
2022-09-01T21:26:40.206Z,16.56
2022-09-01T21:29:28.730Z,16.52
2022-09-01T21:31:57.667Z,16.58
2022-09-01T21:34:25.451Z,16.46
2022-09-01T21:36:55.380Z,16.31
2022-09-01T21:39:24.757Z,16.54
2022-09-01T21:41:52.751Z,16.45
2022-09-01T21:44:21.403Z,16.60
2022-09-01T21:46:50.059Z,16.69
2022-09-01T21:49:17.858Z,16.40
2022-09-01T21:51:46.008Z,16.62
2022-09-01T21:54:13.989Z,16.44
2022-09-01T21:56:43.157Z,16.64
2022-09-01T21:59:13.093Z,16.46
2022-09-01T22:01:40.911Z,16.93
2022-09-01T22:04:09.223Z,16.58
2022-09-01T22:06:39.320Z,16.30
2022-09-01T22:09:20.694Z,16.16
2022-09-01T22:11:51.951Z,16.11
2022-09-01T22:14:20.942Z,16.19
2022-09-01T22:16:49.897Z,16.08
2022-09-01T22:19:18.108Z,15.96
2022-09-01T22:21:48.106Z,15.85
2022-09-01T22:24:18.957Z,15.59
2022-09-01T22:26:48.290Z,15.52
2022-09-01T22:29:18.383Z,15.66
2022-09-01T22:31:46.384Z,16.09
2022-09-01T22:34:14.182Z,15.71
2022-09-01T22:36:44.486Z,16.12
2022-09-01T22:39:13.930Z,16.08
2022-09-01T22:41:42.825Z,15.90
2022-09-01T22:44:11.313Z,15.87
2022-09-01T22:46:41.277Z,15.97
2022-09-01T22:49:09.722Z,15.89
2022-09-01T22:51:39.279Z,15.58
2022-09-01T22:54:07.871Z,15.71
2022-09-01T22:56:39.065Z,15.82
2022-09-01T22:59:10.685Z,15.57
2022-09-01T23:01:42.541Z,15.75
2022-09-01T23:04:12.060Z,15.66
2022-09-01T23:06:41.901Z,15.52
2022-09-01T23:09:09.986Z,15.67
2022-09-01T23:11:38.245Z,15.53
2022-09-01T23:14:06.665Z,14.98
2022-09-01T23:16:35.214Z,15.34
2022-09-01T23:19:05.081Z,15.53
2022-09-01T23:21:35.860Z,15.57
2022-09-01T23:24:04.315Z,15.67
2022-09-01T23:26:33.249Z,15.72
2022-09-01T23:29:01.161Z,15.57
2022-09-01T23:31:31.028Z,15.60
2022-09-01T23:33:59.172Z,15.71
2022-09-01T23:36:29.917Z,15.44
2022-09-01T23:38:58.016Z,14.78
2022-09-01T23:41:30.985Z,14.71
2022-09-01T23:44:00.940Z,14.89
2022-09-01T23:46:31.114Z,15.10
2022-09-01T23:48:59.162Z,15.23
2022-09-01T23:51:28.528Z,15.21
2022-09-01T23:53:56.299Z,15.07
2022-09-01T23:56:26.910Z,15.02
2022-09-01T23:58:55.260Z,14.66
